sensor_id;sensor_type;location;lat;lon;timestamp;P1;durP1;ratioP1;P2;durP2;ratioP2
35074;SDS011;21260;34.984;32.490;2023-06-14T00:01:07;11.60;;;10.40;;
35074;SDS011;21260;34.984;32.490;2023-06-14T00:03:34;12.90;;;10.27;;
35074;SDS011;21260;34.984;32.490;2023-06-14T00:06:00;11.98;;;10.38;;
35074;SDS011;21260;34.984;32.490;2023-06-14T00:08:27;12.65;;;10.70;;
35074;SDS011;21260;34.984;32.490;2023-06-14T00:10:53;12.13;;;10.85;;
35074;SDS011;21260;34.984;32.490;2023-06-14T00:13:19;13.90;;;9.95;;
35074;SDS011;21260;34.984;32.490;2023-06-14T00:15:45;14.25;;;10.52;;
35074;SDS011;21260;34.984;32.490;2023-06-14T00:18:12;11.20;;;10.10;;
35074;SDS011;21260;34.984;32.490;2023-06-14T00:20:40;12.20;;;10.30;;
35074;SDS011;21260;34.984;32.490;2023-06-14T00:23:07;11.45;;;10.35;;
35074;SDS011;21260;34.984;32.490;2023-06-14T00:25:33;11.57;;;10.48;;
35074;SDS011;21260;34.984;32.490;2023-06-14T00:27:59;11.30;;;10.07;;
35074;SDS011;21260;34.984;32.490;2023-06-14T00:30:26;11.40;;;10.30;;
35074;SDS011;21260;34.984;32.490;2023-06-14T00:32:55;11.18;;;9.55;;
35074;SDS011;21260;34.984;32.490;2023-06-14T00:35:22;11.77;;;9.90;;
35074;SDS011;21260;34.984;32.490;2023-06-14T00:37:49;11.88;;;10.45;;
35074;SDS011;21260;34.984;32.490;2023-06-14T00:40:15;10.70;;;9.60;;
35074;SDS011;21260;34.984;32.490;2023-06-14T00:42:41;10.63;;;9.60;;
35074;SDS011;21260;34.984;32.490;2023-06-14T00:45:10;11.30;;;10.10;;
35074;SDS011;21260;34.984;32.490;2023-06-14T00:47:36;13.20;;;9.90;;
35074;SDS011;21260;34.984;32.490;2023-06-14T00:50:06;11.32;;;10.00;;
35074;SDS011;21260;34.984;32.490;2023-06-14T00:52:34;12.77;;;10.30;;
35074;SDS011;21260;34.984;32.490;2023-06-14T00:55:01;11.10;;;9.90;;
35074;SDS011;21260;34.984;32.490;2023-06-14T00:57:28;14.43;;;10.48;;
35074;SDS011;21260;34.984;32.490;2023-06-14T00:59:55;11.93;;;10.13;;
35074;SDS011;21260;34.984;32.490;2023-06-14T01:02:21;11.37;;;9.97;;
35074;SDS011;21260;34.984;32.490;2023-06-14T01:04:49;13.93;;;10.27;;
35074;SDS011;21260;34.984;32.490;2023-06-14T01:15:29;12.73;;;10.27;;
35074;SDS011;21260;34.984;32.490;2023-06-14T01:17:57;12.10;;;10.30;;
35074;SDS011;21260;34.984;32.490;2023-06-14T01:20:33;11.85;;;10.10;;
35074;SDS011;21260;34.984;32.490;2023-06-14T01:23:02;11.60;;;10.40;;
35074;SDS011;21260;34.984;32.490;2023-06-14T01:25:29;11.48;;;10.18;;
35074;SDS011;21260;34.984;32.490;2023-06-14T01:27:57;11.90;;;10.70;;
35074;SDS011;21260;34.984;32.490;2023-06-14T01:30:29;11.77;;;10.10;;
35074;SDS011;21260;34.984;32.490;2023-06-14T01:32:58;10.60;;;9.60;;
35074;SDS011;21260;34.984;32.490;2023-06-14T01:35:25;13.30;;;10.32;;
35074;SDS011;21260;34.984;32.490;2023-06-14T01:37:51;12.70;;;10.73;;
35074;SDS011;21260;34.984;32.490;2023-06-14T01:40:19;12.27;;;9.50;;
35074;SDS011;21260;34.984;32.490;2023-06-14T01:42:48;11.25;;;9.85;;
35074;SDS011;21260;34.984;32.490;2023-06-14T01:45:17;14.20;;;10.52;;
35074;SDS011;21260;34.984;32.490;2023-06-14T01:47:45;11.32;;;10.13;;
35074;SDS011;21260;34.984;32.490;2023-06-14T01:50:13;11.52;;;10.32;;
35074;SDS011;21260;34.984;32.490;2023-06-14T01:52:39;13.38;;;10.93;;
35074;SDS011;21260;34.984;32.490;2023-06-14T01:55:05;12.00;;;10.77;;
35074;SDS011;21260;34.984;32.490;2023-06-14T01:57:33;13.25;;;10.82;;
35074;SDS011;21260;34.984;32.490;2023-06-14T01:59:59;11.95;;;10.70;;
35074;SDS011;21260;34.984;32.490;2023-06-14T02:02:26;13.63;;;10.40;;
35074;SDS011;21260;34.984;32.490;2023-06-14T02:04:52;11.00;;;9.73;;
35074;SDS011;21260;34.984;32.490;2023-06-14T02:07:22;11.18;;;9.98;;
35074;SDS011;21260;34.984;32.490;2023-06-14T02:09:49;12.93;;;10.98;;
35074;SDS011;21260;34.984;32.490;2023-06-14T02:12:15;13.88;;;10.10;;
35074;SDS011;21260;34.984;32.490;2023-06-14T02:14:41;10.75;;;9.65;;
35074;SDS011;21260;34.984;32.490;2023-06-14T02:17:09;12.80;;;10.02;;
35074;SDS011;21260;34.984;32.490;2023-06-14T02:19:35;11.23;;;9.73;;
35074;SDS011;21260;34.984;32.490;2023-06-14T02:22:02;13.55;;;9.90;;
35074;SDS011;21260;34.984;32.490;2023-06-14T02:24:28;14.75;;;10.20;;
35074;SDS011;21260;34.984;32.490;2023-06-14T02:26:54;12.87;;;10.10;;
35074;SDS011;21260;34.984;32.490;2023-06-14T02:29:21;11.97;;;10.27;;
35074;SDS011;21260;34.984;32.490;2023-06-14T02:31:47;10.55;;;9.48;;
35074;SDS011;21260;34.984;32.490;2023-06-14T02:34:14;10.70;;;9.20;;
35074;SDS011;21260;34.984;32.490;2023-06-14T02:36:44;11.00;;;9.43;;
35074;SDS011;21260;34.984;32.490;2023-06-14T02:39:10;11.00;;;8.98;;
35074;SDS011;21260;34.984;32.490;2023-06-14T02:41:37;10.57;;;9.23;;
35074;SDS011;21260;34.984;32.490;2023-06-14T02:44:03;11.18;;;8.98;;
35074;SDS011;21260;34.984;32.490;2023-06-14T02:46:30;9.57;;;8.40;;
35074;SDS011;21260;34.984;32.490;2023-06-14T02:48:56;11.15;;;9.27;;
35074;SDS011;21260;34.984;32.490;2023-06-14T02:51:25;11.60;;;9.13;;
35074;SDS011;21260;34.984;32.490;2023-06-14T02:53:51;9.67;;;8.67;;
35074;SDS011;21260;34.984;32.490;2023-06-14T02:56:17;9.90;;;8.77;;
35074;SDS011;21260;34.984;32.490;2023-06-14T02:58:44;11.02;;;8.50;;
35074;SDS011;21260;34.984;32.490;2023-06-14T03:01:11;9.50;;;7.80;;
35074;SDS011;21260;34.984;32.490;2023-06-14T03:03:39;10.15;;;8.18;;
35074;SDS011;21260;34.984;32.490;2023-06-14T03:06:05;9.55;;;8.55;;
35074;SDS011;21260;34.984;32.490;2023-06-14T03:08:33;10.35;;;8.90;;
35074;SDS011;21260;34.984;32.490;2023-06-14T03:11:04;9.45;;;8.23;;
35074;SDS011;21260;34.984;32.490;2023-06-14T03:13:31;10.82;;;8.75;;
35074;SDS011;21260;34.984;32.490;2023-06-14T03:15:57;10.80;;;8.68;;
35074;SDS011;21260;34.984;32.490;2023-06-14T03:18:23;11.20;;;8.75;;
35074;SDS011;21260;34.984;32.490;2023-06-14T03:20:50;9.75;;;8.75;;
35074;SDS011;21260;34.984;32.490;2023-06-14T03:23:16;9.48;;;8.48;;
35074;SDS011;21260;34.984;32.490;2023-06-14T03:25:42;11.90;;;8.80;;
35074;SDS011;21260;34.984;32.490;2023-06-14T03:28:09;9.32;;;8.43;;
35074;SDS011;21260;34.984;32.490;2023-06-14T03:30:35;10.63;;;9.10;;
35074;SDS011;21260;34.984;32.490;2023-06-14T03:33:01;12.18;;;9.10;;
35074;SDS011;21260;34.984;32.490;2023-06-14T03:35:28;11.10;;;8.85;;
35074;SDS011;21260;34.984;32.490;2023-06-14T03:37:54;11.10;;;8.60;;
35074;SDS011;21260;34.984;32.490;2023-06-14T03:40:21;10.95;;;9.75;;
35074;SDS011;21260;34.984;32.490;2023-06-14T03:42:50;10.50;;;9.32;;
35074;SDS011;21260;34.984;32.490;2023-06-14T03:45:16;11.27;;;9.60;;
35074;SDS011;21260;34.984;32.490;2023-06-14T03:47:43;11.50;;;8.93;;
35074;SDS011;21260;34.984;32.490;2023-06-14T03:50:09;10.23;;;9.13;;
35074;SDS011;21260;34.984;32.490;2023-06-14T03:52:36;10.07;;;8.60;;
35074;SDS011;21260;34.984;32.490;2023-06-14T03:55:03;9.77;;;8.82;;
35074;SDS011;21260;34.984;32.490;2023-06-14T03:57:30;10.05;;;8.95;;
35074;SDS011;21260;34.984;32.490;2023-06-14T03:59:56;11.63;;;9.57;;
35074;SDS011;21260;34.984;32.490;2023-06-14T04:02:22;12.15;;;8.70;;
35074;SDS011;21260;34.984;32.490;2023-06-14T04:04:49;11.25;;;8.95;;
35074;SDS011;21260;34.984;32.490;2023-06-14T04:07:16;10.93;;;9.25;;
35074;SDS011;21260;34.984;32.490;2023-06-14T04:09:44;10.00;;;9.00;;
35074;SDS011;21260;34.984;32.490;2023-06-14T04:12:11;11.52;;;9.35;;
35074;SDS011;21260;34.984;32.490;2023-06-14T04:14:38;10.13;;;8.85;;
35074;SDS011;21260;34.984;32.490;2023-06-14T04:17:07;10.63;;;8.73;;
35074;SDS011;21260;34.984;32.490;2023-06-14T04:19:33;14.90;;;9.13;;
35074;SDS011;21260;34.984;32.490;2023-06-14T04:22:00;12.20;;;9.20;;
35074;SDS011;21260;34.984;32.490;2023-06-14T04:24:27;10.88;;;8.57;;
35074;SDS011;21260;34.984;32.490;2023-06-14T04:26:58;11.30;;;8.98;;
35074;SDS011;21260;34.984;32.490;2023-06-14T04:29:26;10.20;;;8.45;;
35074;SDS011;21260;34.984;32.490;2023-06-14T04:31:55;9.90;;;8.20;;
35074;SDS011;21260;34.984;32.490;2023-06-14T04:34:28;12.07;;;8.30;;
35074;SDS011;21260;34.984;32.490;2023-06-14T04:36:59;10.77;;;8.18;;
35074;SDS011;21260;34.984;32.490;2023-06-14T04:39:26;9.65;;;8.25;;
35074;SDS011;21260;34.984;32.490;2023-06-14T04:41:53;9.20;;;7.93;;
35074;SDS011;21260;34.984;32.490;2023-06-14T04:44:22;11.23;;;8.20;;
35074;SDS011;21260;34.984;32.490;2023-06-14T04:46:55;8.23;;;7.40;;
35074;SDS011;21260;34.984;32.490;2023-06-14T04:49:24;10.30;;;8.25;;
35074;SDS011;21260;34.984;32.490;2023-06-14T04:51:52;9.55;;;8.60;;
35074;SDS011;21260;34.984;32.490;2023-06-14T04:54:24;9.95;;;8.27;;
35074;SDS011;21260;34.984;32.490;2023-06-14T04:56:51;8.90;;;8.00;;
35074;SDS011;21260;34.984;32.490;2023-06-14T04:59:18;9.65;;;8.13;;
35074;SDS011;21260;34.984;32.490;2023-06-14T05:01:44;8.82;;;7.55;;
35074;SDS011;21260;34.984;32.490;2023-06-14T05:04:16;9.63;;;8.32;;
35074;SDS011;21260;34.984;32.490;2023-06-14T05:06:44;10.82;;;7.85;;
35074;SDS011;21260;34.984;32.490;2023-06-14T05:09:12;9.85;;;8.00;;
35074;SDS011;21260;34.984;32.490;2023-06-14T05:11:40;9.65;;;7.80;;
35074;SDS011;21260;34.984;32.490;2023-06-14T05:14:13;7.90;;;7.20;;
35074;SDS011;21260;34.984;32.490;2023-06-14T05:16:40;9.50;;;7.33;;
35074;SDS011;21260;34.984;32.490;2023-06-14T05:19:06;8.60;;;7.15;;
35074;SDS011;21260;34.984;32.490;2023-06-14T05:21:33;9.73;;;7.32;;
35074;SDS011;21260;34.984;32.490;2023-06-14T05:23:59;10.60;;;7.38;;
35074;SDS011;21260;34.984;32.490;2023-06-14T05:26:26;14.38;;;7.00;;
35074;SDS011;21260;34.984;32.490;2023-06-14T05:28:55;8.90;;;7.17;;
35074;SDS011;21260;34.984;32.490;2023-06-14T05:31:24;10.00;;;7.03;;
35074;SDS011;21260;34.984;32.490;2023-06-14T05:33:51;8.75;;;7.15;;
35074;SDS011;21260;34.984;32.490;2023-06-14T05:36:18;7.25;;;6.55;;
35074;SDS011;21260;34.984;32.490;2023-06-14T05:38:46;10.00;;;7.15;;
35074;SDS011;21260;34.984;32.490;2023-06-14T05:41:13;7.90;;;7.10;;
35074;SDS011;21260;34.984;32.490;2023-06-14T05:43:39;7.93;;;6.70;;
35074;SDS011;21260;34.984;32.490;2023-06-14T05:46:06;9.18;;;7.00;;
35074;SDS011;21260;34.984;32.490;2023-06-14T05:48:32;10.77;;;7.03;;
35074;SDS011;21260;34.984;32.490;2023-06-14T05:50:58;8.18;;;6.47;;
35074;SDS011;21260;34.984;32.490;2023-06-14T05:53:25;8.70;;;6.68;;
35074;SDS011;21260;34.984;32.490;2023-06-14T05:55:51;7.97;;;6.63;;
35074;SDS011;21260;34.984;32.490;2023-06-14T05:58:19;7.57;;;6.07;;
35074;SDS011;21260;34.984;32.490;2023-06-14T06:00:47;7.22;;;5.40;;
35074;SDS011;21260;34.984;32.490;2023-06-14T06:03:13;8.88;;;6.03;;
35074;SDS011;21260;34.984;32.490;2023-06-14T06:05:39;8.20;;;5.40;;
35074;SDS011;21260;34.984;32.490;2023-06-14T06:08:05;6.72;;;5.75;;
35074;SDS011;21260;34.984;32.490;2023-06-14T06:10:32;10.73;;;5.85;;
35074;SDS011;21260;34.984;32.490;2023-06-14T06:12:58;8.75;;;5.60;;
35074;SDS011;21260;34.984;32.490;2023-06-14T06:15:24;9.77;;;5.80;;
35074;SDS011;21260;34.984;32.490;2023-06-14T06:17:51;8.00;;;5.72;;
35074;SDS011;21260;34.984;32.490;2023-06-14T06:20:17;6.50;;;5.65;;
35074;SDS011;21260;34.984;32.490;2023-06-14T06:22:43;8.68;;;5.25;;
35074;SDS011;21260;34.984;32.490;2023-06-14T06:25:10;8.35;;;4.80;;
35074;SDS011;21260;34.984;32.490;2023-06-14T06:27:36;5.60;;;5.00;;
35074;SDS011;21260;34.984;32.490;2023-06-14T06:30:03;8.48;;;5.10;;
35074;SDS011;21260;34.984;32.490;2023-06-14T06:32:30;7.68;;;5.18;;
35074;SDS011;21260;34.984;32.490;2023-06-14T06:34:56;7.50;;;5.10;;
35074;SDS011;21260;34.984;32.490;2023-06-14T06:37:25;5.93;;;4.45;;
35074;SDS011;21260;34.984;32.490;2023-06-14T06:39:51;5.30;;;4.53;;
35074;SDS011;21260;34.984;32.490;2023-06-14T06:42:18;8.93;;;4.70;;
35074;SDS011;21260;34.984;32.490;2023-06-14T06:44:44;5.88;;;4.80;;
35074;SDS011;21260;34.984;32.490;2023-06-14T06:47:10;6.10;;;4.72;;
35074;SDS011;21260;34.984;32.490;2023-06-14T06:49:39;7.82;;;4.60;;
35074;SDS011;21260;34.984;32.490;2023-06-14T06:52:06;7.38;;;4.70;;
35074;SDS011;21260;34.984;32.490;2023-06-14T06:54:34;7.03;;;4.57;;
35074;SDS011;21260;34.984;32.490;2023-06-14T06:57:00;5.13;;;4.20;;
35074;SDS011;21260;34.984;32.490;2023-06-14T06:59:27;5.40;;;4.28;;
35074;SDS011;21260;34.984;32.490;2023-06-14T07:01:53;7.28;;;4.28;;
35074;SDS011;21260;34.984;32.490;2023-06-14T07:04:19;6.60;;;4.43;;
35074;SDS011;21260;34.984;32.490;2023-06-14T07:06:46;7.17;;;4.50;;
35074;SDS011;21260;34.984;32.490;2023-06-14T07:09:12;6.22;;;4.25;;
35074;SDS011;21260;34.984;32.490;2023-06-14T07:11:43;5.63;;;4.32;;
35074;SDS011;21260;34.984;32.490;2023-06-14T07:14:10;6.90;;;4.28;;
35074;SDS011;21260;34.984;32.490;2023-06-14T07:16:37;6.35;;;4.57;;
35074;SDS011;21260;34.984;32.490;2023-06-14T07:19:03;5.93;;;4.38;;
35074;SDS011;21260;34.984;32.490;2023-06-14T07:21:30;6.93;;;4.03;;
35074;SDS011;21260;34.984;32.490;2023-06-14T07:23:56;7.25;;;3.80;;
35074;SDS011;21260;34.984;32.490;2023-06-14T07:26:22;6.32;;;3.97;;
35074;SDS011;21260;34.984;32.490;2023-06-14T07:28:50;6.00;;;3.78;;
35074;SDS011;21260;34.984;32.490;2023-06-14T07:31:16;6.33;;;3.67;;
35074;SDS011;21260;34.984;32.490;2023-06-14T07:33:44;5.03;;;3.70;;
35074;SDS011;21260;34.984;32.490;2023-06-14T07:36:11;6.55;;;3.70;;
35074;SDS011;21260;34.984;32.490;2023-06-14T07:38:37;4.57;;;3.50;;
35074;SDS011;21260;34.984;32.490;2023-06-14T07:41:05;6.15;;;3.40;;
35074;SDS011;21260;34.984;32.490;2023-06-14T07:43:31;6.78;;;3.45;;
35074;SDS011;21260;34.984;32.490;2023-06-14T07:45:58;4.32;;;3.00;;
35074;SDS011;21260;34.984;32.490;2023-06-14T07:48:24;4.63;;;3.10;;
35074;SDS011;21260;34.984;32.490;2023-06-14T07:50:50;5.80;;;2.90;;
35074;SDS011;21260;34.984;32.490;2023-06-14T07:53:16;8.00;;;3.13;;
35074;SDS011;21260;34.984;32.490;2023-06-14T07:55:43;7.32;;;3.60;;
35074;SDS011;21260;34.984;32.490;2023-06-14T07:58:09;7.13;;;3.00;;
35074;SDS011;21260;34.984;32.490;2023-06-14T08:00:36;5.32;;;2.88;;
35074;SDS011;21260;34.984;32.490;2023-06-14T08:03:02;5.47;;;3.17;;
35074;SDS011;21260;34.984;32.490;2023-06-14T08:05:30;6.70;;;3.05;;
35074;SDS011;21260;34.984;32.490;2023-06-14T08:07:56;5.53;;;3.00;;
35074;SDS011;21260;34.984;32.490;2023-06-14T08:10:23;2.90;;;2.60;;
35074;SDS011;21260;34.984;32.490;2023-06-14T08:12:49;5.45;;;3.00;;
35074;SDS011;21260;34.984;32.490;2023-06-14T08:15:16;4.45;;;2.70;;
35074;SDS011;21260;34.984;32.490;2023-06-14T08:17:43;5.47;;;3.10;;
35074;SDS011;21260;34.984;32.490;2023-06-14T08:20:10;4.47;;;2.50;;
35074;SDS011;21260;34.984;32.490;2023-06-14T08:22:38;4.88;;;2.75;;
35074;SDS011;21260;34.984;32.490;2023-06-14T08:25:07;5.88;;;2.53;;
35074;SDS011;21260;34.984;32.490;2023-06-14T08:27:34;3.55;;;2.58;;
35074;SDS011;21260;34.984;32.490;2023-06-14T08:30:04;4.82;;;2.78;;
35074;SDS011;21260;34.984;32.490;2023-06-14T08:32:33;8.30;;;2.67;;
35074;SDS011;21260;34.984;32.490;2023-06-14T08:34:59;3.83;;;2.50;;
35074;SDS011;21260;34.984;32.490;2023-06-14T08:37:25;6.05;;;2.97;;
35074;SDS011;21260;34.984;32.490;2023-06-14T08:39:52;2.95;;;2.42;;
35074;SDS011;21260;34.984;32.490;2023-06-14T08:42:18;4.93;;;2.70;;
35074;SDS011;21260;34.984;32.490;2023-06-14T08:44:49;4.28;;;2.60;;
35074;SDS011;21260;34.984;32.490;2023-06-14T08:47:15;7.18;;;2.67;;
35074;SDS011;21260;34.984;32.490;2023-06-14T08:49:47;3.83;;;2.50;;
35074;SDS011;21260;34.984;32.490;2023-06-14T08:52:14;5.35;;;2.80;;
35074;SDS011;21260;34.984;32.490;2023-06-14T08:54:46;5.05;;;2.50;;
35074;SDS011;21260;34.984;32.490;2023-06-14T08:57:13;7.95;;;2.78;;
35074;SDS011;21260;34.984;32.490;2023-06-14T08:59:45;4.25;;;2.50;;
35074;SDS011;21260;34.984;32.490;2023-06-14T09:02:18;5.43;;;2.35;;
35074;SDS011;21260;34.984;32.490;2023-06-14T09:04:47;4.60;;;2.33;;
35074;SDS011;21260;34.984;32.490;2023-06-14T09:07:14;7.45;;;2.55;;
35074;SDS011;21260;34.984;32.490;2023-06-14T09:09:41;3.60;;;2.60;;
35074;SDS011;21260;34.984;32.490;2023-06-14T09:12:08;6.40;;;2.53;;
35074;SDS011;21260;34.984;32.490;2023-06-14T09:14:37;3.78;;;2.70;;
35074;SDS011;21260;34.984;32.490;2023-06-14T09:17:06;5.57;;;2.97;;
35074;SDS011;21260;34.984;32.490;2023-06-14T09:19:33;3.83;;;2.53;;
35074;SDS011;21260;34.984;32.490;2023-06-14T09:22:03;7.22;;;2.97;;
35074;SDS011;21260;34.984;32.490;2023-06-14T09:24:30;4.18;;;2.55;;
35074;SDS011;21260;34.984;32.490;2023-06-14T09:26:56;5.88;;;2.65;;
35074;SDS011;21260;34.984;32.490;2023-06-14T09:29:23;4.30;;;2.35;;
35074;SDS011;21260;34.984;32.490;2023-06-14T09:31:50;5.18;;;2.60;;
35074;SDS011;21260;34.984;32.490;2023-06-14T09:34:17;6.75;;;2.45;;
35074;SDS011;21260;34.984;32.490;2023-06-14T09:36:45;4.97;;;2.47;;
35074;SDS011;21260;34.984;32.490;2023-06-14T09:39:12;3.28;;;2.40;;
35074;SDS011;21260;34.984;32.490;2023-06-14T09:41:43;4.20;;;2.50;;
35074;SDS011;21260;34.984;32.490;2023-06-14T09:44:10;4.85;;;2.35;;
35074;SDS011;21260;34.984;32.490;2023-06-14T09:46:39;3.90;;;2.30;;
35074;SDS011;21260;34.984;32.490;2023-06-14T09:49:06;3.85;;;2.38;;
35074;SDS011;21260;34.984;32.490;2023-06-14T09:51:34;6.38;;;2.60;;
35074;SDS011;21260;34.984;32.490;2023-06-14T09:54:09;6.43;;;2.50;;
35074;SDS011;21260;34.984;32.490;2023-06-14T09:56:44;6.50;;;2.33;;
35074;SDS011;21260;34.984;32.490;2023-06-14T09:59:12;6.50;;;2.50;;
35074;SDS011;21260;34.984;32.490;2023-06-14T10:01:45;4.40;;;2.13;;
35074;SDS011;21260;34.984;32.490;2023-06-14T10:04:15;3.47;;;2.45;;
35074;SDS011;21260;34.984;32.490;2023-06-14T10:06:47;4.65;;;2.30;;
35074;SDS011;21260;34.984;32.490;2023-06-14T10:09:16;2.95;;;2.20;;
35074;SDS011;21260;34.984;32.490;2023-06-14T10:11:43;5.45;;;2.28;;
35074;SDS011;21260;34.984;32.490;2023-06-14T10:14:11;5.50;;;2.40;;
35074;SDS011;21260;34.984;32.490;2023-06-14T10:19:47;5.35;;;2.22;;
35074;SDS011;21260;34.984;32.490;2023-06-14T10:22:42;4.28;;;2.30;;
35074;SDS011;21260;34.984;32.490;2023-06-14T10:25:27;5.43;;;2.50;;
35074;SDS011;21260;34.984;32.490;2023-06-14T10:33:39;4.43;;;2.35;;
35074;SDS011;21260;34.984;32.490;2023-06-14T10:36:30;5.05;;;2.00;;
35074;SDS011;21260;34.984;32.490;2023-06-14T10:39:18;3.20;;;2.15;;
35074;SDS011;21260;34.984;32.490;2023-06-14T10:41:54;3.75;;;1.98;;
35074;SDS011;21260;34.984;32.490;2023-06-14T10:46:49;5.07;;;2.80;;
35074;SDS011;21260;34.984;32.490;2023-06-14T10:49:18;6.03;;;2.45;;
35074;SDS011;21260;34.984;32.490;2023-06-14T10:51:54;5.32;;;2.00;;
35074;SDS011;21260;34.984;32.490;2023-06-14T10:54:23;3.30;;;2.35;;
35074;SDS011;21260;34.984;32.490;2023-06-14T10:56:53;4.33;;;2.77;;
35074;SDS011;21260;34.984;32.490;2023-06-14T10:59:20;5.28;;;2.63;;
35074;SDS011;21260;34.984;32.490;2023-06-14T11:04:52;5.85;;;2.75;;
35074;SDS011;21260;34.984;32.490;2023-06-14T11:13:08;5.65;;;2.90;;
35074;SDS011;21260;34.984;32.490;2023-06-14T11:15:38;6.05;;;2.70;;
35074;SDS011;21260;34.984;32.490;2023-06-14T11:18:10;4.13;;;2.70;;
35074;SDS011;21260;34.984;32.490;2023-06-14T11:20:39;5.25;;;2.63;;
35074;SDS011;21260;34.984;32.490;2023-06-14T11:23:09;5.10;;;2.67;;
35074;SDS011;21260;34.984;32.490;2023-06-14T11:25:35;4.05;;;2.75;;
35074;SDS011;21260;34.984;32.490;2023-06-14T11:28:02;5.40;;;2.90;;
35074;SDS011;21260;34.984;32.490;2023-06-14T11:30:28;4.40;;;2.65;;
35074;SDS011;21260;34.984;32.490;2023-06-14T11:32:55;3.67;;;2.50;;
35074;SDS011;21260;34.984;32.490;2023-06-14T11:35:22;7.32;;;2.92;;
35074;SDS011;21260;34.984;32.490;2023-06-14T11:37:56;6.63;;;2.92;;
35074;SDS011;21260;34.984;32.490;2023-06-14T11:40:26;5.43;;;2.85;;
35074;SDS011;21260;34.984;32.490;2023-06-14T11:43:00;4.40;;;2.92;;
35074;SDS011;21260;34.984;32.490;2023-06-14T11:45:29;3.78;;;2.75;;
35074;SDS011;21260;34.984;32.490;2023-06-14T11:47:56;9.05;;;2.90;;
35074;SDS011;21260;34.984;32.490;2023-06-14T11:50:26;10.18;;;2.88;;
35074;SDS011;21260;34.984;32.490;2023-06-14T11:52:54;5.93;;;2.90;;
35074;SDS011;21260;34.984;32.490;2023-06-14T11:55:22;5.70;;;2.70;;
35074;SDS011;21260;34.984;32.490;2023-06-14T11:57:49;7.00;;;3.10;;
35074;SDS011;21260;34.984;32.490;2023-06-14T12:00:16;6.70;;;3.08;;
35074;SDS011;21260;34.984;32.490;2023-06-14T12:02:51;5.38;;;2.90;;
35074;SDS011;21260;34.984;32.490;2023-06-14T12:05:23;6.13;;;3.10;;
35074;SDS011;21260;34.984;32.490;2023-06-14T12:07:58;5.70;;;2.80;;
35074;SDS011;21260;34.984;32.490;2023-06-14T12:10:26;7.45;;;3.30;;
35074;SDS011;21260;34.984;32.490;2023-06-14T12:12:58;8.05;;;3.15;;
35074;SDS011;21260;34.984;32.490;2023-06-14T12:15:27;6.37;;;3.33;;
35074;SDS011;21260;34.984;32.490;2023-06-14T12:17:57;7.65;;;3.13;;
35074;SDS011;21260;34.984;32.490;2023-06-14T12:20:28;9.20;;;3.15;;
35074;SDS011;21260;34.984;32.490;2023-06-14T12:22:56;6.93;;;3.50;;
35074;SDS011;21260;34.984;32.490;2023-06-14T12:25:32;6.22;;;3.40;;
35074;SDS011;21260;34.984;32.490;2023-06-14T12:28:05;11.80;;;3.67;;
35074;SDS011;21260;34.984;32.490;2023-06-14T12:30:35;7.53;;;3.53;;
35074;SDS011;21260;34.984;32.490;2023-06-14T12:33:03;8.55;;;3.47;;
35074;SDS011;21260;34.984;32.490;2023-06-14T12:35:31;10.52;;;4.00;;
35074;SDS011;21260;34.984;32.490;2023-06-14T12:37:57;10.35;;;3.80;;
35074;SDS011;21260;34.984;32.490;2023-06-14T12:40:24;8.77;;;3.92;;
35074;SDS011;21260;34.984;32.490;2023-06-14T12:42:51;10.93;;;4.45;;
35074;SDS011;21260;34.984;32.490;2023-06-14T12:45:17;10.63;;;4.00;;
35074;SDS011;21260;34.984;32.490;2023-06-14T12:47:44;8.10;;;3.95;;
35074;SDS011;21260;34.984;32.490;2023-06-14T12:50:10;10.88;;;4.20;;
35074;SDS011;21260;34.984;32.490;2023-06-14T12:52:38;8.70;;;4.00;;
35074;SDS011;21260;34.984;32.490;2023-06-14T12:55:04;10.52;;;4.30;;
35074;SDS011;21260;34.984;32.490;2023-06-14T12:57:31;9.07;;;4.10;;
35074;SDS011;21260;34.984;32.490;2023-06-14T13:00:00;12.05;;;4.32;;
35074;SDS011;21260;34.984;32.490;2023-06-14T13:02:26;9.20;;;3.65;;
35074;SDS011;21260;34.984;32.490;2023-06-14T13:04:52;9.15;;;3.80;;
35074;SDS011;21260;34.984;32.490;2023-06-14T13:07:19;12.35;;;3.97;;
35074;SDS011;21260;34.984;32.490;2023-06-14T13:09:45;8.35;;;3.70;;
35074;SDS011;21260;34.984;32.490;2023-06-14T13:12:12;8.98;;;4.07;;
35074;SDS011;21260;34.984;32.490;2023-06-14T13:14:38;11.77;;;4.07;;
35074;SDS011;21260;34.984;32.490;2023-06-14T13:17:07;8.80;;;4.47;;
35074;SDS011;21260;34.984;32.490;2023-06-14T13:19:35;10.88;;;4.40;;
35074;SDS011;21260;34.984;32.490;2023-06-14T13:22:01;10.52;;;4.30;;
35074;SDS011;21260;34.984;32.490;2023-06-14T13:24:28;12.10;;;4.45;;
35074;SDS011;21260;34.984;32.490;2023-06-14T13:26:55;10.98;;;4.43;;
35074;SDS011;21260;34.984;32.490;2023-06-14T13:29:23;8.90;;;4.38;;
35074;SDS011;21260;34.984;32.490;2023-06-14T13:31:50;10.38;;;4.38;;
35074;SDS011;21260;34.984;32.490;2023-06-14T13:34:16;10.35;;;4.43;;
35074;SDS011;21260;34.984;32.490;2023-06-14T13:36:43;9.98;;;4.35;;
35074;SDS011;21260;34.984;32.490;2023-06-14T13:39:09;10.60;;;4.57;;
35074;SDS011;21260;34.984;32.490;2023-06-14T13:41:38;11.93;;;4.63;;
35074;SDS011;21260;34.984;32.490;2023-06-14T13:44:05;11.38;;;4.60;;
35074;SDS011;21260;34.984;32.490;2023-06-14T13:46:31;11.27;;;4.90;;
35074;SDS011;21260;34.984;32.490;2023-06-14T13:48:57;9.90;;;4.72;;
35074;SDS011;21260;34.984;32.490;2023-06-14T13:51:25;9.30;;;4.47;;
35074;SDS011;21260;34.984;32.490;2023-06-14T13:53:52;9.25;;;4.55;;
35074;SDS011;21260;34.984;32.490;2023-06-14T13:56:19;12.20;;;4.93;;
35074;SDS011;21260;34.984;32.490;2023-06-14T13:58:45;8.75;;;4.30;;
35074;SDS011;21260;34.984;32.490;2023-06-14T14:01:12;11.18;;;4.70;;
35074;SDS011;21260;34.984;32.490;2023-06-14T14:03:38;11.47;;;4.93;;
35074;SDS011;21260;34.984;32.490;2023-06-14T14:06:04;12.77;;;4.82;;
35074;SDS011;21260;34.984;32.490;2023-06-14T14:08:32;13.18;;;4.80;;
35074;SDS011;21260;34.984;32.490;2023-06-14T14:11:00;10.18;;;5.00;;
35074;SDS011;21260;34.984;32.490;2023-06-14T14:13:26;9.93;;;4.60;;
35074;SDS011;21260;34.984;32.490;2023-06-14T14:15:52;11.38;;;4.82;;
35074;SDS011;21260;34.984;32.490;2023-06-14T14:18:19;13.60;;;4.88;;
35074;SDS011;21260;34.984;32.490;2023-06-14T14:20:46;10.43;;;5.20;;
35074;SDS011;21260;34.984;32.490;2023-06-14T14:23:13;11.65;;;4.40;;
35074;SDS011;21260;34.984;32.490;2023-06-14T14:25:40;8.68;;;4.70;;
35074;SDS011;21260;34.984;32.490;2023-06-14T14:28:07;7.88;;;4.93;;
35074;SDS011;21260;34.984;32.490;2023-06-14T14:30:34;10.13;;;5.07;;
35074;SDS011;21260;34.984;32.490;2023-06-14T14:33:03;12.38;;;5.40;;
35074;SDS011;21260;34.984;32.490;2023-06-14T14:35:29;11.85;;;5.32;;
35074;SDS011;21260;34.984;32.490;2023-06-14T14:37:55;9.33;;;4.77;;
35074;SDS011;21260;34.984;32.490;2023-06-14T14:40:22;8.85;;;5.30;;
35074;SDS011;21260;34.984;32.490;2023-06-14T14:42:48;9.38;;;5.20;;
35074;SDS011;21260;34.984;32.490;2023-06-14T14:45:14;13.82;;;5.53;;
35074;SDS011;21260;34.984;32.490;2023-06-14T14:47:41;8.33;;;4.50;;
35074;SDS011;21260;34.984;32.490;2023-06-14T14:50:07;8.17;;;4.50;;
35074;SDS011;21260;34.984;32.490;2023-06-14T14:52:36;8.93;;;4.40;;
35074;SDS011;21260;34.984;32.490;2023-06-14T14:55:03;9.35;;;4.45;;
35074;SDS011;21260;34.984;32.490;2023-06-14T14:57:30;10.02;;;4.65;;
35074;SDS011;21260;34.984;32.490;2023-06-14T14:59:57;11.23;;;4.20;;